Terminal Aerodrome Forecast
Issued by NWS Twin Cities, MN

Home | Current Version | Previous Version | Graphics & Text | Print | Product List | Glossary On
Versions: 1 2 3 4 5 6 7 8 9 10 11 12 13 14 15 16 17 18 19 20 21 22 23 24 25 26 27 28 29 30 31
000
FTUS43 KMPX 240859 AAA
TAFMSP
TAF AMD
KMSP 240859Z 2409/2512 25004KT 6SM BR BKN150
     FM241400 25005KT P6SM BKN120
     FM242000 28005KT P6SM OVC020
     FM250200 03006KT 1 1/2SM -SN OVC012
      TEMPO 2503/2507 3/4SM -SN VV006
     FM250800 03011KT 3SM -SN OVC014=

USA.gov is the U.S. government's official web portal to all federal, state and local government web resources and services.